sensor_id;sensor_type;location;lat;lon;timestamp;pressure;altitude;pressure_sealevel;temperature;humidity
66945;BME280;53853;51.982;5.928;2023-03-25T00:01:47;100045.47;;;11.00;69.50
66945;BME280;53853;51.982;5.928;2023-03-25T00:04:20;100041.66;;;11.03;69.95
66945;BME280;53853;51.982;5.928;2023-03-25T00:06:53;100046.00;;;11.04;69.27
66945;BME280;53853;51.982;5.928;2023-03-25T00:09:24;100052.97;;;11.05;70.10
66945;BME280;53853;51.982;5.928;2023-03-25T00:11:54;100031.97;;;11.02;69.52
66945;BME280;53853;51.982;5.928;2023-03-25T00:14:24;100042.63;;;11.02;69.38
66945;BME280;53853;51.982;5.928;2023-03-25T00:16:54;100039.50;;;10.98;69.44
66945;BME280;53853;51.982;5.928;2023-03-25T00:19:27;100029.81;;;10.97;70.23
66945;BME280;53853;51.982;5.928;2023-03-25T00:21:57;100034.00;;;11.00;70.12
66945;BME280;53853;51.982;5.928;2023-03-25T00:24:27;100034.34;;;10.97;70.00
66945;BME280;53853;51.982;5.928;2023-03-25T00:26:57;100024.84;;;10.94;69.98
66945;BME280;53853;51.982;5.928;2023-03-25T00:29:27;100031.84;;;10.95;70.05
66945;BME280;53853;51.982;5.928;2023-03-25T00:31:57;100031.66;;;10.97;70.56
66945;BME280;53853;51.982;5.928;2023-03-25T00:34:29;100029.81;;;10.97;70.41
66945;BME280;53853;51.982;5.928;2023-03-25T00:37:01;100030.00;;;10.96;70.34
66945;BME280;53853;51.982;5.928;2023-03-25T00:39:31;100038.50;;;10.99;69.63
66945;BME280;53853;51.982;5.928;2023-03-25T00:42:01;100030.34;;;11.01;70.04
66945;BME280;53853;51.982;5.928;2023-03-25T00:44:31;100030.69;;;10.98;69.60
66945;BME280;53853;51.982;5.928;2023-03-25T00:47:01;100026.50;;;10.95;69.82
66945;BME280;53853;51.982;5.928;2023-03-25T00:49:33;100027.31;;;10.96;69.84
66945;BME280;53853;51.982;5.928;2023-03-25T00:52:04;100030.00;;;10.96;69.81
66945;BME280;53853;51.982;5.928;2023-03-25T00:54:34;100033.50;;;10.96;69.71
66945;BME280;53853;51.982;5.928;2023-03-25T00:57:03;100019.34;;;10.96;69.24
66945;BME280;53853;51.982;5.928;2023-03-25T00:59:33;100020.69;;;10.92;69.41
66945;BME280;53853;51.982;5.928;2023-03-25T01:02:03;100035.66;;;10.93;69.52
66945;BME280;53853;51.982;5.928;2023-03-25T01:04:36;100021.03;;;10.88;69.09
66945;BME280;53853;51.982;5.928;2023-03-25T01:07:06;100026.53;;;10.87;69.53
66945;BME280;53853;51.982;5.928;2023-03-25T01:09:38;100021.38;;;10.85;69.20
66945;BME280;53853;51.982;5.928;2023-03-25T01:12:08;100023.06;;;10.86;69.60
66945;BME280;53853;51.982;5.928;2023-03-25T01:14:38;100033.72;;;10.86;68.91
66945;BME280;53853;51.982;5.928;2023-03-25T01:17:09;100023.41;;;10.83;68.83
66945;BME280;53853;51.982;5.928;2023-03-25T01:19:41;100019.88;;;10.83;68.80
66945;BME280;53853;51.982;5.928;2023-03-25T01:22:11;100012.06;;;10.81;68.81
66945;BME280;53853;51.982;5.928;2023-03-25T01:24:42;100013.06;;;10.80;69.23
66945;BME280;53853;51.982;5.928;2023-03-25T01:27:13;100022.06;;;10.79;68.81
66945;BME280;53853;51.982;5.928;2023-03-25T01:29:43;100018.25;;;10.82;68.70
66945;BME280;53853;51.982;5.928;2023-03-25T01:32:13;100019.72;;;10.84;68.71
66945;BME280;53853;51.982;5.928;2023-03-25T01:34:46;100021.56;;;10.84;68.17
66945;BME280;53853;51.982;5.928;2023-03-25T01:37:15;100015.22;;;10.85;68.41
66945;BME280;53853;51.982;5.928;2023-03-25T01:39:46;100012.91;;;10.82;68.53
66945;BME280;53853;51.982;5.928;2023-03-25T01:42:16;100009.38;;;10.81;68.01
66945;BME280;53853;51.982;5.928;2023-03-25T01:45:12;100013.41;;;10.77;68.26
66945;BME280;53853;51.982;5.928;2023-03-25T01:47:43;100007.44;;;10.67;68.06
66945;BME280;53853;51.982;5.928;2023-03-25T01:50:16;100010.09;;;10.67;68.42
66945;BME280;53853;51.982;5.928;2023-03-25T01:52:49;100010.63;;;10.71;68.67
66945;BME280;53853;51.982;5.928;2023-03-25T01:55:20;100001.25;;;10.75;68.71
66945;BME280;53853;51.982;5.928;2023-03-25T01:57:55;100009.25;;;10.75;68.24
66945;BME280;53853;51.982;5.928;2023-03-25T02:00:27;100003.56;;;10.78;68.12
66945;BME280;53853;51.982;5.928;2023-03-25T02:02:58;100011.75;;;10.76;68.63
66945;BME280;53853;51.982;5.928;2023-03-25T02:05:38;100023.56;;;10.82;68.07
66945;BME280;53853;51.982;5.928;2023-03-25T02:08:10;100009.38;;;10.81;68.94
66945;BME280;53853;51.982;5.928;2023-03-25T02:10:44;100002.41;;;10.80;69.78
66945;BME280;53853;51.982;5.928;2023-03-25T02:13:15;100012.06;;;10.81;70.34
66945;BME280;53853;51.982;5.928;2023-03-25T02:16:02;100015.56;;;10.82;70.39
66945;BME280;53853;51.982;5.928;2023-03-25T02:18:42;100011.56;;;10.78;69.99
66945;BME280;53853;51.982;5.928;2023-03-25T02:27:26;99996.00;;;10.58;71.65
66945;BME280;53853;51.982;5.928;2023-03-25T02:33:33;100000.63;;;10.56;72.26
66945;BME280;53853;51.982;5.928;2023-03-25T02:39:15;100006.66;;;10.50;72.16
66945;BME280;53853;51.982;5.928;2023-03-25T02:41:52;99998.50;;;10.51;72.38
66945;BME280;53853;51.982;5.928;2023-03-25T02:44:30;100000.50;;;10.49;72.93
66945;BME280;53853;51.982;5.928;2023-03-25T02:47:07;99998.84;;;10.48;73.30
66945;BME280;53853;51.982;5.928;2023-03-25T02:49:41;99996.69;;;10.36;73.71
66945;BME280;53853;51.982;5.928;2023-03-25T02:52:16;100002.19;;;10.34;73.85
66945;BME280;53853;51.982;5.928;2023-03-25T02:54:53;99994.00;;;10.36;73.78
66945;BME280;53853;51.982;5.928;2023-03-25T02:57:31;99987.34;;;10.31;73.52
66945;BME280;53853;51.982;5.928;2023-03-25T03:00:05;99992.03;;;10.29;73.46
66945;BME280;53853;51.982;5.928;2023-03-25T03:02:44;99994.50;;;10.23;73.19
66945;BME280;53853;51.982;5.928;2023-03-25T03:05:22;99982.22;;;10.22;73.30
66945;BME280;53853;51.982;5.928;2023-03-25T03:07:59;99985.88;;;10.21;73.23
66945;BME280;53853;51.982;5.928;2023-03-25T03:10:40;99987.53;;;10.22;73.43
66945;BME280;53853;51.982;5.928;2023-03-25T03:13:20;99987.19;;;10.16;73.15
66945;BME280;53853;51.982;5.928;2023-03-25T03:15:58;99980.38;;;10.14;73.68
66945;BME280;53853;51.982;5.928;2023-03-25T03:18:43;99983.22;;;10.12;73.91
66945;BME280;53853;51.982;5.928;2023-03-25T03:21:21;99982.72;;;10.09;73.80
66945;BME280;53853;51.982;5.928;2023-03-25T03:23:56;99986.38;;;10.08;74.57
66945;BME280;53853;51.982;5.928;2023-03-25T03:26:37;99987.19;;;10.08;74.88
66945;BME280;53853;51.982;5.928;2023-03-25T03:29:12;99988.56;;;10.04;74.75
66945;BME280;53853;51.982;5.928;2023-03-25T03:31:50;99994.88;;;10.03;75.02
66945;BME280;53853;51.982;5.928;2023-03-25T03:34:26;99991.38;;;10.03;75.13
66945;BME280;53853;51.982;5.928;2023-03-25T03:37:01;99988.38;;;10.06;74.70
66945;BME280;53853;51.982;5.928;2023-03-25T03:39:35;99983.06;;;10.06;74.72
66945;BME280;53853;51.982;5.928;2023-03-25T03:42:12;99983.88;;;10.06;74.71
66945;BME280;53853;51.982;5.928;2023-03-25T03:44:48;99980.22;;;10.07;75.03
66945;BME280;53853;51.982;5.928;2023-03-25T03:47:22;99989.03;;;10.08;75.02
66945;BME280;53853;51.982;5.928;2023-03-25T03:49:56;99987.88;;;10.02;75.40
66945;BME280;53853;51.982;5.928;2023-03-25T03:52:30;99984.88;;;9.97;75.66
66945;BME280;53853;51.982;5.928;2023-03-25T03:55:05;99983.25;;;9.96;75.97
66945;BME280;53853;51.982;5.928;2023-03-25T03:57:45;99983.41;;;9.94;75.99
66945;BME280;53853;51.982;5.928;2023-03-25T04:00:18;99991.03;;;9.97;76.10
66945;BME280;53853;51.982;5.928;2023-03-25T04:02:54;99984.88;;;9.97;75.66
66945;BME280;53853;51.982;5.928;2023-03-25T04:05:26;99997.22;;;9.98;75.63
66945;BME280;53853;51.982;5.928;2023-03-25T04:08:00;99992.53;;;10.00;75.51
66945;BME280;53853;51.982;5.928;2023-03-25T04:10:40;99985.22;;;10.02;75.42
66945;BME280;53853;51.982;5.928;2023-03-25T04:13:15;99980.72;;;10.03;74.99
66945;BME280;53853;51.982;5.928;2023-03-25T04:15:46;99987.53;;;10.05;74.96
66945;BME280;53853;51.982;5.928;2023-03-25T04:18:17;99989.38;;;10.05;74.91
66945;BME280;53853;51.982;5.928;2023-03-25T04:20:49;99984.88;;;10.05;75.26
66945;BME280;53853;51.982;5.928;2023-03-25T04:23:19;99977.75;;;10.06;75.21
66945;BME280;53853;51.982;5.928;2023-03-25T04:25:49;99985.72;;;10.06;74.91
66945;BME280;53853;51.982;5.928;2023-03-25T04:28:23;99985.72;;;10.06;75.34
66945;BME280;53853;51.982;5.928;2023-03-25T04:30:52;99986.72;;;10.05;75.31
66945;BME280;53853;51.982;5.928;2023-03-25T04:33:26;99980.41;;;10.06;75.39
66945;BME280;53853;51.982;5.928;2023-03-25T04:35:57;99977.25;;;10.10;75.42
66945;BME280;53853;51.982;5.928;2023-03-25T04:38:27;99968.91;;;10.13;75.03
66945;BME280;53853;51.982;5.928;2023-03-25T04:40:57;99980.38;;;10.14;74.96
66945;BME280;53853;51.982;5.928;2023-03-25T04:43:30;99976.53;;;10.16;75.07
66945;BME280;53853;51.982;5.928;2023-03-25T04:46:00;99973.38;;;10.13;74.99
66945;BME280;53853;51.982;5.928;2023-03-25T04:48:31;99971.59;;;10.13;75.10
66945;BME280;53853;51.982;5.928;2023-03-25T04:51:07;99975.06;;;10.14;75.27
66945;BME280;53853;51.982;5.928;2023-03-25T04:53:39;99963.06;;;10.10;74.83
66945;BME280;53853;51.982;5.928;2023-03-25T04:56:15;99970.06;;;10.11;74.65
66945;BME280;53853;51.982;5.928;2023-03-25T04:58:48;99964.75;;;10.11;74.31
66945;BME280;53853;51.982;5.928;2023-03-25T05:01:21;99964.59;;;10.12;74.69
66945;BME280;53853;51.982;5.928;2023-03-25T05:03:57;99960.94;;;10.13;74.57
66945;BME280;53853;51.982;5.928;2023-03-25T05:06:33;99957.75;;;10.10;74.32
66945;BME280;53853;51.982;5.928;2023-03-25T05:09:05;99963.94;;;10.10;73.74
66945;BME280;53853;51.982;5.928;2023-03-25T05:11:36;99958.78;;;10.09;73.48
66945;BME280;53853;51.982;5.928;2023-03-25T05:14:11;99958.59;;;10.10;73.65
66945;BME280;53853;51.982;5.928;2023-03-25T05:16:41;99969.25;;;10.10;73.25
66945;BME280;53853;51.982;5.928;2023-03-25T05:19:12;99976.06;;;10.13;73.72
66945;BME280;53853;51.982;5.928;2023-03-25T05:21:44;99965.22;;;10.14;72.81
66945;BME280;53853;51.982;5.928;2023-03-25T05:24:14;99981.22;;;10.14;72.19
66945;BME280;53853;51.982;5.928;2023-03-25T05:26:45;99972.22;;;10.15;72.42
66945;BME280;53853;51.982;5.928;2023-03-25T05:29:18;99976.75;;;10.15;72.92
66945;BME280;53853;51.982;5.928;2023-03-25T05:31:48;99971.03;;;10.18;72.33
66945;BME280;53853;51.982;5.928;2023-03-25T05:34:18;99970.06;;;10.19;72.71
66945;BME280;53853;51.982;5.928;2023-03-25T05:36:48;99964.56;;;10.21;72.34
66945;BME280;53853;51.982;5.928;2023-03-25T05:39:20;99959.25;;;10.21;72.33
66945;BME280;53853;51.982;5.928;2023-03-25T05:41:50;99970.72;;;10.21;72.03
66945;BME280;53853;51.982;5.928;2023-03-25T05:44:24;99980.72;;;10.19;71.69
66945;BME280;53853;51.982;5.928;2023-03-25T05:46:54;99991.03;;;10.14;71.88
66945;BME280;53853;51.982;5.928;2023-03-25T05:49:27;99996.22;;;10.07;72.45
66945;BME280;53853;51.982;5.928;2023-03-25T05:51:56;99999.19;;;10.04;72.58
66945;BME280;53853;51.982;5.928;2023-03-25T05:54:27;99988.56;;;10.04;72.70
66945;BME280;53853;51.982;5.928;2023-03-25T05:56:57;99991.22;;;10.04;72.93
66945;BME280;53853;51.982;5.928;2023-03-25T05:59:29;100006.34;;;10.04;72.99
66945;BME280;53853;51.982;5.928;2023-03-25T06:01:59;99998.19;;;10.05;72.93
66945;BME280;53853;51.982;5.928;2023-03-25T06:04:29;100008.19;;;10.03;73.11
66945;BME280;53853;51.982;5.928;2023-03-25T06:06:59;100007.53;;;10.01;73.57
66945;BME280;53853;51.982;5.928;2023-03-25T06:09:29;100009.84;;;10.04;73.39
66945;BME280;53853;51.982;5.928;2023-03-25T06:12:01;100017.16;;;10.02;73.52
66945;BME280;53853;51.982;5.928;2023-03-25T06:14:33;100015.19;;;10.04;73.24
66945;BME280;53853;51.982;5.928;2023-03-25T06:17:03;100009.16;;;10.02;73.50
66945;BME280;53853;51.982;5.928;2023-03-25T06:19:33;100022.47;;;9.94;73.82
66945;BME280;53853;51.982;5.928;2023-03-25T06:22:09;100013.50;;;9.95;74.66
66945;BME280;53853;51.982;5.928;2023-03-25T06:24:40;100008.50;;;9.92;74.47
66945;BME280;53853;51.982;5.928;2023-03-25T06:27:13;100012.00;;;9.92;74.94
66945;BME280;53853;51.982;5.928;2023-03-25T06:29:46;100024.81;;;9.89;75.22
66945;BME280;53853;51.982;5.928;2023-03-25T06:32:16;100019.16;;;9.92;75.52
66945;BME280;53853;51.982;5.928;2023-03-25T06:34:46;100024.81;;;9.97;75.19
66945;BME280;53853;51.982;5.928;2023-03-25T06:37:16;100019.97;;;10.01;74.90
66945;BME280;53853;51.982;5.928;2023-03-25T06:39:47;100015.50;;;10.01;74.01
66945;BME280;53853;51.982;5.928;2023-03-25T06:42:23;100019.16;;;10.00;74.13
66945;BME280;53853;51.982;5.928;2023-03-25T06:45:18;100028.13;;;9.99;74.19
66945;BME280;53853;51.982;5.928;2023-03-25T06:48:08;100027.63;;;10.04;73.85
66945;BME280;53853;51.982;5.928;2023-03-25T06:50:38;100018.50;;;10.06;74.15
66945;BME280;53853;51.982;5.928;2023-03-25T06:53:08;100034.13;;;10.09;73.19
66945;BME280;53853;51.982;5.928;2023-03-25T06:55:38;100030.66;;;10.09;73.76
66945;BME280;53853;51.982;5.928;2023-03-25T06:58:08;100026.47;;;10.14;73.68
66945;BME280;53853;51.982;5.928;2023-03-25T07:00:40;100034.63;;;10.21;72.96
66945;BME280;53853;51.982;5.928;2023-03-25T07:03:11;100019.50;;;10.22;71.91
66945;BME280;53853;51.982;5.928;2023-03-25T07:05:41;100029.28;;;10.21;71.97
66945;BME280;53853;51.982;5.928;2023-03-25T07:08:12;100030.16;;;10.22;72.32
66945;BME280;53853;51.982;5.928;2023-03-25T07:10:42;100028.13;;;10.24;72.47
66945;BME280;53853;51.982;5.928;2023-03-25T07:13:12;100029.81;;;10.25;71.89
66945;BME280;53853;51.982;5.928;2023-03-25T07:15:44;100033.13;;;10.27;71.60
66945;BME280;53853;51.982;5.928;2023-03-25T07:18:14;100028.44;;;10.29;71.90
66945;BME280;53853;51.982;5.928;2023-03-25T07:20:44;100026.81;;;10.36;71.65
66945;BME280;53853;51.982;5.928;2023-03-25T07:23:15;100020.84;;;10.42;71.63
66945;BME280;53853;51.982;5.928;2023-03-25T07:25:45;100021.66;;;10.43;71.54
66945;BME280;53853;51.982;5.928;2023-03-25T07:28:15;100024.13;;;10.52;71.84
66945;BME280;53853;51.982;5.928;2023-03-25T07:30:49;100034.75;;;10.61;71.70
66945;BME280;53853;51.982;5.928;2023-03-25T07:33:19;100025.28;;;10.58;71.31
66945;BME280;53853;51.982;5.928;2023-03-25T07:35:50;100037.09;;;10.56;71.67
66945;BME280;53853;51.982;5.928;2023-03-25T07:38:20;100034.47;;;10.47;71.98
66945;BME280;53853;51.982;5.928;2023-03-25T07:40:49;100049.44;;;10.40;71.87
66945;BME280;53853;51.982;5.928;2023-03-25T07:43:19;100046.47;;;10.35;72.35
66945;BME280;53853;51.982;5.928;2023-03-25T07:45:58;100040.16;;;10.36;71.97
66945;BME280;53853;51.982;5.928;2023-03-25T07:48:30;100052.44;;;10.37;71.88
66945;BME280;53853;51.982;5.928;2023-03-25T07:51:03;100053.78;;;10.33;72.05
66945;BME280;53853;51.982;5.928;2023-03-25T07:53:34;100058.44;;;10.31;72.53
66945;BME280;53853;51.982;5.928;2023-03-25T07:56:09;100054.09;;;10.30;72.55
66945;BME280;53853;51.982;5.928;2023-03-25T07:58:39;100051.28;;;10.23;72.72
66945;BME280;53853;51.982;5.928;2023-03-25T08:01:12;100064.44;;;10.25;73.25
66945;BME280;53853;51.982;5.928;2023-03-25T08:03:42;100054.44;;;10.27;73.63
66945;BME280;53853;51.982;5.928;2023-03-25T08:06:12;100053.44;;;10.28;74.19
66945;BME280;53853;51.982;5.928;2023-03-25T08:08:42;100066.94;;;10.35;73.86
66945;BME280;53853;51.982;5.928;2023-03-25T08:11:12;100069.44;;;10.36;73.59
66945;BME280;53853;51.982;5.928;2023-03-25T08:13:43;100078.25;;;10.37;74.05
66945;BME280;53853;51.982;5.928;2023-03-25T08:16:15;100074.94;;;10.43;74.09
66945;BME280;53853;51.982;5.928;2023-03-25T08:18:45;100077.75;;;10.41;74.64
66945;BME280;53853;51.982;5.928;2023-03-25T08:21:19;100078.09;;;10.38;75.12
66945;BME280;53853;51.982;5.928;2023-03-25T08:23:52;100077.59;;;10.35;75.07
66945;BME280;53853;51.982;5.928;2023-03-25T08:26:28;100076.22;;;10.30;75.68
66945;BME280;53853;51.982;5.928;2023-03-25T08:29:00;100064.59;;;10.31;76.49
66945;BME280;53853;51.982;5.928;2023-03-25T08:31:33;100085.44;;;10.36;76.06
66945;BME280;53853;51.982;5.928;2023-03-25T08:34:05;100081.06;;;10.43;75.65
66945;BME280;53853;51.982;5.928;2023-03-25T08:36:35;100082.75;;;10.52;75.83
66945;BME280;53853;51.982;5.928;2023-03-25T08:39:07;100073.56;;;10.63;74.63
66945;BME280;53853;51.982;5.928;2023-03-25T08:41:38;100073.56;;;10.72;74.12
66945;BME280;53853;51.982;5.928;2023-03-25T08:44:09;100075.38;;;10.79;73.46
66945;BME280;53853;51.982;5.928;2023-03-25T08:46:42;100075.69;;;10.84;73.36
66945;BME280;53853;51.982;5.928;2023-03-25T08:49:12;100078.19;;;10.86;73.28
66945;BME280;53853;51.982;5.928;2023-03-25T08:51:42;100076.34;;;10.95;72.68
66945;BME280;53853;51.982;5.928;2023-03-25T08:54:12;100077.47;;;11.00;72.50
66945;BME280;53853;51.982;5.928;2023-03-25T08:56:42;100079.28;;;11.08;72.19
66945;BME280;53853;51.982;5.928;2023-03-25T08:59:12;100082.25;;;11.13;72.70
66945;BME280;53853;51.982;5.928;2023-03-25T09:01:47;100092.91;;;11.21;72.99
66945;BME280;53853;51.982;5.928;2023-03-25T09:04:18;100081.19;;;11.31;72.03
66945;BME280;53853;51.982;5.928;2023-03-25T09:06:48;100093.00;;;11.36;72.83
66945;BME280;53853;51.982;5.928;2023-03-25T09:09:19;100086.66;;;11.46;72.88
66945;BME280;53853;51.982;5.928;2023-03-25T09:11:49;100092.53;;;11.33;72.46
66945;BME280;53853;51.982;5.928;2023-03-25T09:14:19;100092.75;;;11.23;73.28
66945;BME280;53853;51.982;5.928;2023-03-25T09:16:52;100080.94;;;11.17;73.37
66945;BME280;53853;51.982;5.928;2023-03-25T09:19:22;100081.25;;;11.14;73.71
66945;BME280;53853;51.982;5.928;2023-03-25T09:21:52;100081.91;;;11.16;73.96
66945;BME280;53853;51.982;5.928;2023-03-25T09:24:22;100079.59;;;11.21;72.50
66945;BME280;53853;51.982;5.928;2023-03-25T09:26:53;100079.75;;;11.20;71.59
66945;BME280;53853;51.982;5.928;2023-03-25T09:29:23;100072.53;;;11.29;73.03
66945;BME280;53853;51.982;5.928;2023-03-25T09:31:55;100067.84;;;11.39;72.79
66945;BME280;53853;51.982;5.928;2023-03-25T09:34:27;100078.50;;;11.39;72.22
66945;BME280;53853;51.982;5.928;2023-03-25T09:36:58;100085.53;;;11.32;72.25
66945;BME280;53853;51.982;5.928;2023-03-25T09:39:29;100084.75;;;11.23;72.83
66945;BME280;53853;51.982;5.928;2023-03-25T09:44:59;100067.25;;;11.20;73.21
66945;BME280;53853;51.982;5.928;2023-03-25T09:47:35;100096.44;;;11.14;72.91
66945;BME280;53853;51.982;5.928;2023-03-25T09:50:11;100089.75;;;11.26;73.83
66945;BME280;53853;51.982;5.928;2023-03-25T09:52:50;100098.00;;;11.39;72.89
66945;BME280;53853;51.982;5.928;2023-03-25T09:55:25;100104.00;;;11.41;72.42
66945;BME280;53853;51.982;5.928;2023-03-25T09:58:00;100106.88;;;11.32;72.23
66945;BME280;53853;51.982;5.928;2023-03-25T10:00:31;100100.91;;;11.21;73.44
66945;BME280;53853;51.982;5.928;2023-03-25T10:03:10;100104.88;;;11.26;74.84
66945;BME280;53853;51.982;5.928;2023-03-25T10:05:57;100095.50;;;11.38;73.97
66945;BME280;53853;51.982;5.928;2023-03-25T10:08:35;100091.28;;;11.52;73.48
66945;BME280;53853;51.982;5.928;2023-03-25T10:11:14;100109.56;;;11.63;72.37
66945;BME280;53853;51.982;5.928;2023-03-25T10:13:52;100103.66;;;11.76;71.69
66945;BME280;53853;51.982;5.928;2023-03-25T10:16:30;100108.25;;;11.90;71.04
66945;BME280;53853;51.982;5.928;2023-03-25T10:19:20;100103.50;;;12.09;71.54
66945;BME280;53853;51.982;5.928;2023-03-25T10:21:54;100098.84;;;12.26;70.98
66945;BME280;53853;51.982;5.928;2023-03-25T10:24:28;100112.69;;;12.29;68.70
66945;BME280;53853;51.982;5.928;2023-03-25T10:27:02;100096.34;;;12.24;68.88
66945;BME280;53853;51.982;5.928;2023-03-25T10:29:38;100106.31;;;12.30;69.75
66945;BME280;53853;51.982;5.928;2023-03-25T10:32:14;100113.09;;;12.41;68.91
66945;BME280;53853;51.982;5.928;2023-03-25T10:34:50;100114.31;;;12.54;69.13
66945;BME280;53853;51.982;5.928;2023-03-25T10:37:26;100117.81;;;12.54;68.70
66945;BME280;53853;51.982;5.928;2023-03-25T10:40:11;100111.81;;;12.52;69.02
66945;BME280;53853;51.982;5.928;2023-03-25T10:42:47;100120.91;;;12.43;69.72
66945;BME280;53853;51.982;5.928;2023-03-25T10:45:22;100104.13;;;12.34;70.78
66945;BME280;53853;51.982;5.928;2023-03-25T10:47:55;100114.34;;;12.30;71.27
66945;BME280;53853;51.982;5.928;2023-03-25T10:50:34;100120.38;;;12.24;71.20
66945;BME280;53853;51.982;5.928;2023-03-25T10:53:04;100128.97;;;12.20;71.95
66945;BME280;53853;51.982;5.928;2023-03-25T10:55:35;100129.50;;;12.15;71.28
66945;BME280;53853;51.982;5.928;2023-03-25T10:58:08;100125.69;;;12.09;71.75
66945;BME280;53853;51.982;5.928;2023-03-25T11:00:39;100117.09;;;11.99;72.85
66945;BME280;53853;51.982;5.928;2023-03-25T11:03:15;100132.63;;;11.87;72.47
66945;BME280;53853;51.982;5.928;2023-03-25T11:05:51;100126.81;;;11.84;72.70
66945;BME280;53853;51.982;5.928;2023-03-25T11:08:21;100127.28;;;11.87;72.59
66945;BME280;53853;51.982;5.928;2023-03-25T11:10:52;100135.28;;;11.95;73.36
66945;BME280;53853;51.982;5.928;2023-03-25T11:13:27;100122.94;;;11.94;72.69
66945;BME280;53853;51.982;5.928;2023-03-25T11:16:00;100133.28;;;11.98;72.21
66945;BME280;53853;51.982;5.928;2023-03-25T11:18:34;100129.06;;;12.03;72.20
66945;BME280;53853;51.982;5.928;2023-03-25T11:21:11;100131.66;;;12.11;71.42
66945;BME280;53853;51.982;5.928;2023-03-25T11:23:43;100133.88;;;12.08;70.50
66945;BME280;53853;51.982;5.928;2023-03-25T11:26:19;100141.34;;;12.12;71.22
66945;BME280;53853;51.982;5.928;2023-03-25T11:28:51;100149.84;;;12.16;71.83
66945;BME280;53853;51.982;5.928;2023-03-25T11:31:24;100138.75;;;12.04;70.40
66945;BME280;53853;51.982;5.928;2023-03-25T11:34:05;100126.25;;;11.96;71.78
66945;BME280;53853;51.982;5.928;2023-03-25T11:36:38;100135.75;;;11.91;71.74
66945;BME280;53853;51.982;5.928;2023-03-25T11:39:16;100133.63;;;11.86;72.35
66945;BME280;53853;51.982;5.928;2023-03-25T11:41:46;100134.81;;;11.84;70.62
66945;BME280;53853;51.982;5.928;2023-03-25T11:44:21;100133.63;;;11.86;69.65
66945;BME280;53853;51.982;5.928;2023-03-25T11:46:56;100150.47;;;11.95;69.69
66945;BME280;53853;51.982;5.928;2023-03-25T11:49:27;100128.75;;;11.98;68.12
66945;BME280;53853;51.982;5.928;2023-03-25T11:52:04;100127.34;;;12.10;66.61
66945;BME280;53853;51.982;5.928;2023-03-25T11:54:36;100157.31;;;11.98;64.04
66945;BME280;53853;51.982;5.928;2023-03-25T11:57:11;100164.13;;;12.00;64.63
66945;BME280;53853;51.982;5.928;2023-03-25T11:59:44;100147.41;;;12.06;64.91
66945;BME280;53853;51.982;5.928;2023-03-25T12:02:22;100150.63;;;12.25;66.11
66945;BME280;53853;51.982;5.928;2023-03-25T12:04:57;100145.63;;;12.45;63.98
66945;BME280;53853;51.982;5.928;2023-03-25T12:07:41;100147.81;;;12.64;65.35
66945;BME280;53853;51.982;5.928;2023-03-25T12:10:17;100139.06;;;12.71;63.55
66945;BME280;53853;51.982;5.928;2023-03-25T12:12:55;100135.81;;;12.60;62.34
66945;BME280;53853;51.982;5.928;2023-03-25T12:15:34;100132.59;;;12.65;63.97
66945;BME280;53853;51.982;5.928;2023-03-25T12:18:14;100133.66;;;12.79;64.85
66945;BME280;53853;51.982;5.928;2023-03-25T12:20:54;100133.47;;;12.95;65.06
66945;BME280;53853;51.982;5.928;2023-03-25T12:23:36;100133.09;;;12.98;61.93
66945;BME280;53853;51.982;5.928;2023-03-25T12:26:12;100106.63;;;13.03;64.00
66945;BME280;53853;51.982;5.928;2023-03-25T12:29:12;100127.31;;;13.10;62.40
66945;BME280;53853;51.982;5.928;2023-03-25T12:31:59;100122.25;;;13.15;60.83
66945;BME280;53853;51.982;5.928;2023-03-25T12:34:39;100132.78;;;13.16;60.60
66945;BME280;53853;51.982;5.928;2023-03-25T12:37:22;100116.06;;;13.14;60.93
66945;BME280;53853;51.982;5.928;2023-03-25T12:40:16;100114.69;;;13.18;60.59
66945;BME280;53853;51.982;5.928;2023-03-25T12:42:59;100114.03;;;13.16;59.10
66945;BME280;53853;51.982;5.928;2023-03-25T12:45:49;100124.72;;;13.01;59.24
66945;BME280;53853;51.982;5.928;2023-03-25T12:48:46;100126.56;;;13.01;60.46
66945;BME280;53853;51.982;5.928;2023-03-25T12:51:27;100131.44;;;12.82;63.62
66945;BME280;53853;51.982;5.928;2023-03-25T12:54:06;100159.75;;;12.54;65.94
66945;BME280;53853;51.982;5.928;2023-03-25T12:56:49;100158.03;;;12.14;68.84
66945;BME280;53853;51.982;5.928;2023-03-25T13:02:28;100138.56;;;11.27;69.92
66945;BME280;53853;51.982;5.928;2023-03-25T13:05:12;100140.28;;;11.03;72.34
66945;BME280;53853;51.982;5.928;2023-03-25T13:07:45;100150.16;;;10.86;72.77
66945;BME280;53853;51.982;5.928;2023-03-25T13:10:18;100151.66;;;10.64;74.18
66945;BME280;53853;51.982;5.928;2023-03-25T13:12:53;100142.00;;;10.55;75.30
66945;BME280;53853;51.982;5.928;2023-03-25T13:15:26;100144.66;;;10.55;75.77
66945;BME280;53853;51.982;5.928;2023-03-25T13:18:00;100148.84;;;10.57;75.95
66945;BME280;53853;51.982;5.928;2023-03-25T13:20:39;100133.69;;;10.66;77.27
66945;BME280;53853;51.982;5.928;2023-03-25T13:23:14;100152.00;;;10.77;75.81
66945;BME280;53853;51.982;5.928;2023-03-25T13:25:49;100152.78;;;10.94;76.89
66945;BME280;53853;51.982;5.928;2023-03-25T13:28:27;100148.28;;;11.11;76.51
66945;BME280;53853;51.982;5.928;2023-03-25T13:31:05;100148.94;;;11.21;75.09
66945;BME280;53853;51.982;5.928;2023-03-25T13:33:40;100140.91;;;11.30;74.60
66945;BME280;53853;51.982;5.928;2023-03-25T13:36:19;100149.34;;;11.41;74.95
66945;BME280;53853;51.982;5.928;2023-03-25T13:38:54;100151.47;;;11.54;73.27
66945;BME280;53853;51.982;5.928;2023-03-25T13:41:25;100134.94;;;11.59;71.59
66945;BME280;53853;51.982;5.928;2023-03-25T13:44:05;100137.28;;;11.54;68.64
66945;BME280;53853;51.982;5.928;2023-03-25T13:46:39;100133.63;;;11.55;69.62